Portada
METAR-TAF:

METAR-TAF

Aeroports :

Aeroport Internacional de Sfax

Sfax, Tunísia

latitud: 34-43N, longitud: 010-41E, altitud: 21 m

Observació

L'informe es va fer fa 49 minuts, a les 06:00 UTC
Vent 6 kt del Nord/Nord-Oest
Temperatura 23°C
Humitat 65%
Pressió 1019 hPa
Visibilitat 10 km o més
Escasses núvols a una alçada de 2000 ft

METAR: DTTX 250600Z 34006KT 9999 FEW020 23/16 Q1019

Hora: 07:49 (06:49 UTC)

Pronòstic

L'informe es va fer fa 1 hora i 49 minuts, a les 05:00 UTC
Pronòstic vàlid del 25 a les 06 UTC al 26 a les 06 UTC
Vent 6 kt del Nord-Est
Visibilitat 10 km o més
Escasses núvols a una alçada de 2000 ft
Evolucionant progressivament
l' 25 a les 13 UTC al 25 a les 15 UTC
Vent 12 kt del Est
Evolucionant progressivament
l' 25 a les 22 UTC al 25 a les 24 UTC
Vent 10 kt del Nord/Nord-Est

TAF: DTTX 250500Z 2506/2606 04006KT 9999 FEW020 BECMG 2513/2515 10012KT BECMG 2522/2524 02010KT

Observacions i pronòstics meteorològics de més de 4000 aeroports (METAR i TAF).

Les estacions disponibles són els punts grocs i vermells al mapa.

Posi el ratolí al punt desitjat per veure el nom de l'estació.

Feu clic per veure les observacions i els pronòstics meteorològics.

Per canviar el mapa: feu clic els botons verds amb una creu de color negre per apropar; al botó verd amb un guió per allunyar la imatge; o en les fletxes verdes per a mapes adjacents.


METAR-TAF: